sensor_id;sensor_type;location;lat;lon;timestamp;temperature;humidity
71551;DHT22;59367;48.414;9.872;2022-12-11T00:00:02;1.904327393;60.74676514
71551;DHT22;59367;48.414;9.872;2022-12-11T00:01:12;1.874950409;60.51330566
71551;DHT22;59367;48.414;9.872;2022-12-11T00:02:16;1.834896088;60.75592041
71551;DHT22;59367;48.414;9.872;2022-12-11T00:03:20;1.792171478;60.49041748
71551;DHT22;59367;48.414;9.872;2022-12-11T00:04:25;1.762798309;60.92224121
71551;DHT22;59367;48.414;9.872;2022-12-11T00:05:30;1.749446869;61.31896973
71551;DHT22;59367;48.414;9.872;2022-12-11T00:06:34;1.70672226;61.29150391
71551;DHT22;59367;48.414;9.872;2022-12-11T00:07:38;1.680019379;61.22741699
71551;DHT22;59367;48.414;9.872;2022-12-11T00:08:43;1.621269226;61.36627197
71551;DHT22;59367;48.414;9.872;2022-12-11T00:09:47;1.607917786;61.4654541
71551;DHT22;59367;48.414;9.872;2022-12-11T00:10:52;1.565193176;61.76452637
71551;DHT22;59367;48.414;9.872;2022-12-11T00:11:56;1.551841736;61.48529053
71551;DHT22;59367;48.414;9.872;2022-12-11T00:13:00;1.525138855;61.48071289
71551;DHT22;59367;48.414;9.872;2022-12-11T00:14:05;1.495765686;61.77368164
71551;DHT22;59367;48.414;9.872;2022-12-11T00:15:10;1.439689636;62.06207275
71551;DHT22;59367;48.414;9.872;2022-12-11T00:16:15;1.410316467;62.3260498
71551;DHT22;59367;48.414;9.872;2022-12-11T00:17:19;1.426338196;62.22686768
71551;DHT22;59367;48.414;9.872;2022-12-11T00:18:23;1.354236603;61.84997559
71551;DHT22;59367;48.414;9.872;2022-12-11T00:19:27;1.340885162;61.79046631
71551;DHT22;59367;48.414;9.872;2022-12-11T00:20:32;1.311511993;61.66687012
71551;DHT22;59367;48.414;9.872;2022-12-11T00:21:36;1.255435944;61.79504395
71551;DHT22;59367;48.414;9.872;2022-12-11T00:22:41;1.255435944;62.01171875
71551;DHT22;59367;48.414;9.872;2022-12-11T00:23:45;1.212711334;62.24365234
71551;DHT22;59367;48.414;9.872;2022-12-11T00:24:50;1.172657013;62.54577637
71551;DHT22;59367;48.414;9.872;2022-12-11T00:25:54;1.11390686;62.7746582
71551;DHT22;59367;48.414;9.872;2022-12-11T00:26:59;1.143283844;62.94555664
71551;DHT22;59367;48.414;9.872;2022-12-11T00:28:03;1.055160522;63.18817139
71551;DHT22;59367;48.414;9.872;2022-12-11T00:29:08;1.028457642;62.96844482
71551;DHT22;59367;48.414;9.872;2022-12-11T00:30:14;0.985733032;63.27819824
71551;DHT22;59367;48.414;9.872;2022-12-11T00:31:20;0.886932373;63.45825195
71551;DHT22;59367;48.414;9.872;2022-12-11T00:32:24;0.886932373;63.55895996
71551;DHT22;59367;48.414;9.872;2022-12-11T00:33:29;0.886932373;63.59863281
71551;DHT22;59367;48.414;9.872;2022-12-11T00:34:33;0.860225677;63.34686279
71551;DHT22;59367;48.414;9.872;2022-12-11T00:35:41;0.844203949;63.0645752
71551;DHT22;59367;48.414;9.872;2022-12-11T00:36:46;0.844203949;62.34436035
71551;DHT22;59367;48.414;9.872;2022-12-11T00:37:50;0.830852509;62.32147217
71551;DHT22;59367;48.414;9.872;2022-12-11T00:38:55;0.804149628;62.3260498
71551;DHT22;59367;48.414;9.872;2022-12-11T00:39:59;0.74540329;62.50610352
71551;DHT22;59367;48.414;9.872;2022-12-11T00:41:03;0.74540329;62.79296875
71551;DHT22;59367;48.414;9.872;2022-12-11T00:42:08;0.732051849;63.07678223
71551;DHT22;59367;48.414;9.872;2022-12-11T00:43:12;0.718700409;63.28277588
71551;DHT22;59367;48.414;9.872;2022-12-11T00:44:17;0.705348969;63.55743408
71551;DHT22;59367;48.414;9.872;2022-12-11T00:45:21;0.662624359;63.72680664
71551;DHT22;59367;48.414;9.872;2022-12-11T00:46:25;0.649272919;63.73596191
71551;DHT22;59367;48.414;9.872;2022-12-11T00:47:29;0.649272919;63.18206787
71551;DHT22;59367;48.414;9.872;2022-12-11T00:48:34;0.619895935;62.78991699
71551;DHT22;59367;48.414;9.872;2022-12-11T00:49:38;0.649272919;62.58850098
71551;DHT22;59367;48.414;9.872;2022-12-11T00:50:43;0.590522766;62.65716553
71551;DHT22;59367;48.414;9.872;2022-12-11T00:51:47;0.606544495;63.1149292
71551;DHT22;59367;48.414;9.872;2022-12-11T00:52:51;0.577171326;63.26904297
71551;DHT22;59367;48.414;9.872;2022-12-11T00:53:56;0.577171326;63.58642578
71551;DHT22;59367;48.414;9.872;2022-12-11T00:55:00;0.563819885;63.61236572
71551;DHT22;59367;48.414;9.872;2022-12-11T00:56:11;0.550468445;63.77868652
71551;DHT22;59367;48.414;9.872;2022-12-11T00:57:15;0.563819885;63.98925781
71551;DHT22;59367;48.414;9.872;2022-12-11T00:58:20;0.563819885;63.96179199
71551;DHT22;59367;48.414;9.872;2022-12-11T00:59:24;0.563819885;63.78173828
71551;DHT22;59367;48.414;9.872;2022-12-11T01:00:30;0.550468445;63.77868652
71551;DHT22;59367;48.414;9.872;2022-12-11T01:01:35;0.577171326;63.80157471
71551;DHT22;59367;48.414;9.872;2022-12-11T01:02:39;0.534446716;63.99383545
71551;DHT22;59367;48.414;9.872;2022-12-11T01:03:44;0.534446716;63.70544434
71551;DHT22;59367;48.414;9.872;2022-12-11T01:04:48;0.563819885;63.47503662
71551;DHT22;59367;48.414;9.872;2022-12-11T01:05:56;0.550468445;63.54980469
71551;DHT22;59367;48.414;9.872;2022-12-11T01:07:00;0.550468445;63.74969482
71551;DHT22;59367;48.414;9.872;2022-12-11T01:08:05;0.534446716;64.09912109
71551;DHT22;59367;48.414;9.872;2022-12-11T01:09:09;0.534446716;64.33258057
71551;DHT22;59367;48.414;9.872;2022-12-11T01:10:14;0.507743835;64.51568604
71551;DHT22;59367;48.414;9.872;2022-12-11T01:11:19;0.521095276;64.73388672
71551;DHT22;59367;48.414;9.872;2022-12-11T01:12:23;0.507743835;64.92767334
71551;DHT22;59367;48.414;9.872;2022-12-11T01:13:28;0.478370667;65.234375
71551;DHT22;59367;48.414;9.872;2022-12-11T01:14:32;0.451667786;65.3427124
71551;DHT22;59367;48.414;9.872;2022-12-11T01:15:41;0.507743835;65.64178467
71551;DHT22;59367;48.414;9.872;2022-12-11T01:16:46;0.507743835;65.81115723
71551;DHT22;59367;48.414;9.872;2022-12-11T01:17:51;0.534446716;65.78826904
71551;DHT22;59367;48.414;9.872;2022-12-11T01:18:55;0.521095276;65.69061279
71551;DHT22;59367;48.414;9.872;2022-12-11T01:20:00;0.577171326;65.71960449
71551;DHT22;59367;48.414;9.872;2022-12-11T01:21:09;0.577171326;65.60821533
71551;DHT22;59367;48.414;9.872;2022-12-11T01:22:13;0.590522766;65.26184082
71551;DHT22;59367;48.414;9.872;2022-12-11T01:23:17;0.606544495;64.73846436
71551;DHT22;59367;48.414;9.872;2022-12-11T01:24:22;0.577171326;64.26391602
71551;DHT22;59367;48.414;9.872;2022-12-11T01:25:27;0.590522766;63.98773193
71551;DHT22;59367;48.414;9.872;2022-12-11T01:26:31;0.606544495;64.10217285
71551;DHT22;59367;48.414;9.872;2022-12-11T01:27:36;0.619895935;64.13116455
71551;DHT22;59367;48.414;9.872;2022-12-11T01:28:41;0.606544495;64.35394287
71551;DHT22;59367;48.414;9.872;2022-12-11T01:29:45;0.606544495;64.54162598
71551;DHT22;59367;48.414;9.872;2022-12-11T01:30:49;0.606544495;64.45922852
71551;DHT22;59367;48.414;9.872;2022-12-11T01:31:54;0.606544495;64.43786621
71551;DHT22;59367;48.414;9.872;2022-12-11T01:32:58;0.606544495;64.36462402
71551;DHT22;59367;48.414;9.872;2022-12-11T01:34:02;0.63325119;64.35852051
71551;DHT22;59367;48.414;9.872;2022-12-11T01:35:10;0.619895935;64.3371582
71551;DHT22;59367;48.414;9.872;2022-12-11T01:36:16;0.590522766;64.32342529
71551;DHT22;59367;48.414;9.872;2022-12-11T01:37:21;0.550468445;64.45007324
71551;DHT22;59367;48.414;9.872;2022-12-11T01:38:26;0.563819885;64.32800293
71551;DHT22;59367;48.414;9.872;2022-12-11T01:39:30;0.534446716;64.37225342
71551;DHT22;59367;48.414;9.872;2022-12-11T01:40:34;0.534446716;64.41802979
71551;DHT22;59367;48.414;9.872;2022-12-11T01:41:39;0.521095276;64.50042725
71551;DHT22;59367;48.414;9.872;2022-12-11T01:42:43;0.550468445;63.8961792
71551;DHT22;59367;48.414;9.872;2022-12-11T01:44:04;0.550468445;63.57116699
71551;DHT22;59367;48.414;9.872;2022-12-11T01:46:42;0.550468445;63.22479248
71551;DHT22;59367;48.414;9.872;2022-12-11T01:47:47;0.534446716;63.05541992
71551;DHT22;59367;48.414;9.872;2022-12-11T01:48:51;0.534446716;63.01422119
71551;DHT22;59367;48.414;9.872;2022-12-11T01:49:56;0.521095276;63.01269531
71551;DHT22;59367;48.414;9.872;2022-12-11T01:51:03;0.491722107;62.85858154
71551;DHT22;59367;48.414;9.872;2022-12-11T01:52:12;0.491722107;62.75177002
71551;DHT22;59367;48.414;9.872;2022-12-11T01:53:21;0.478370667;62.89825439
71551;DHT22;59367;48.414;9.872;2022-12-11T01:54:28;0.478370667;62.89825439
71551;DHT22;59367;48.414;9.872;2022-12-11T01:55:33;0.465019226;62.70751953
71551;DHT22;59367;48.414;9.872;2022-12-11T01:56:40;0.435646057;62.63275146
71551;DHT22;59367;48.414;9.872;2022-12-11T01:57:47;0.408943176;62.54119873
71551;DHT22;59367;48.414;9.872;2022-12-11T01:58:55;0.395591736;62.6663208
71551;DHT22;59367;48.414;9.872;2022-12-11T02:00:00;0.366214752;62.73040771
71551;DHT22;59367;48.414;9.872;2022-12-11T02:01:05;0.366214752;62.73040771
71551;DHT22;59367;48.414;9.872;2022-12-11T02:02:14;0.366214752;62.99591064
71551;DHT22;59367;48.414;9.872;2022-12-11T02:03:20;0.323490143;63.06915283
71551;DHT22;59367;48.414;9.872;2022-12-11T02:04:25;0.323490143;63.20648193
71551;DHT22;59367;48.414;9.872;2022-12-11T02:05:31;0.310138702;63.43078613
71551;DHT22;59367;48.414;9.872;2022-12-11T02:06:38;0.310138702;63.77868652
71551;DHT22;59367;48.414;9.872;2022-12-11T02:07:46;0.310138702;63.53149414
71551;DHT22;59367;48.414;9.872;2022-12-11T02:08:52;0.296787262;63.72680664
71551;DHT22;59367;48.414;9.872;2022-12-11T02:09:56;0.280765533;63.80157471
71551;DHT22;59367;48.414;9.872;2022-12-11T02:11:08;0.296787262;63.97399902
71551;DHT22;59367;48.414;9.872;2022-12-11T02:12:17;0.310138702;64.11743164
71551;DHT22;59367;48.414;9.872;2022-12-11T02:13:31;0.296787262;64.21813965
71551;DHT22;59367;48.414;9.872;2022-12-11T02:14:40;0.310138702;64.29443359
71551;DHT22;59367;48.414;9.872;2022-12-11T02:15:50;0.310138702;64.37835693
71551;DHT22;59367;48.414;9.872;2022-12-11T02:17:03;0.296787262;64.30358887
71551;DHT22;59367;48.414;9.872;2022-12-11T02:18:16;0.296787262;64.14337158
71551;DHT22;59367;48.414;9.872;2022-12-11T02:19:35;0.323490143;64.15710449
71551;DHT22;59367;48.414;9.872;2022-12-11T02:20:47;0.323490143;64.23187256
71551;DHT22;59367;48.414;9.872;2022-12-11T02:21:57;0.323490143;64.42871094
71551;DHT22;59367;48.414;9.872;2022-12-11T02:23:18;0.366214752;64.52026367
71551;DHT22;59367;48.414;9.872;2022-12-11T02:24:35;0.366214752;64.68048096
71551;DHT22;59367;48.414;9.872;2022-12-11T02:25:54;0.379570007;64.4744873
71551;DHT22;59367;48.414;9.872;2022-12-11T02:27:13;0.366214752;64.44549561
71551;DHT22;59367;48.414;9.872;2022-12-11T02:28:22;0.379570007;64.4744873
71551;DHT22;59367;48.414;9.872;2022-12-11T02:29:32;0.435646057;64.62554932
71551;DHT22;59367;48.414;9.872;2022-12-11T02:30:39;0.422294617;65.00854492
71551;DHT22;59367;48.414;9.872;2022-12-11T02:31:48;0.379570007;65.31066895
71551;DHT22;59367;48.414;9.872;2022-12-11T02:32:55;0.395591736;65.29388428
71551;DHT22;59367;48.414;9.872;2022-12-11T02:34:05;0.379570007;65.28320313
71551;DHT22;59367;48.414;9.872;2022-12-11T02:35:14;0.422294617;65.28015137
71551;DHT22;59367;48.414;9.872;2022-12-11T02:36:23;0.408943176;65.34423828
71551;DHT22;59367;48.414;9.872;2022-12-11T02:37:31;0.422294617;65.43884277
71551;DHT22;59367;48.414;9.872;2022-12-11T02:38:39;0.435646057;65.55328369
71551;DHT22;59367;48.414;9.872;2022-12-11T02:39:45;0.422294617;65.65551758
71551;DHT22;59367;48.414;9.872;2022-12-11T02:40:51;0.435646057;65.72265625
71551;DHT22;59367;48.414;9.872;2022-12-11T02:41:58;0.491722107;65.75164795
71551;DHT22;59367;48.414;9.872;2022-12-11T02:43:06;0.478370667;65.65551758
71551;DHT22;59367;48.414;9.872;2022-12-11T02:44:13;0.507743835;65.5670166
71551;DHT22;59367;48.414;9.872;2022-12-11T02:45:19;0.478370667;65.94696045
71551;DHT22;59367;48.414;9.872;2022-12-11T02:46:25;0.451667786;66.20483398
71551;DHT22;59367;48.414;9.872;2022-12-11T02:47:31;0.491722107;66.23077393
71551;DHT22;59367;48.414;9.872;2022-12-11T02:48:37;0.465019226;66.41387939
71551;DHT22;59367;48.414;9.872;2022-12-11T02:49:44;0.507743835;66.39251709
71551;DHT22;59367;48.414;9.872;2022-12-11T02:50:54;0.507743835;66.19567871
71551;DHT22;59367;48.414;9.872;2022-12-11T02:52:00;0.521095276;66.24450684
71551;DHT22;59367;48.414;9.872;2022-12-11T02:53:07;0.563819885;66.09344482
71551;DHT22;59367;48.414;9.872;2022-12-11T02:54:17;0.590522766;65.91033936
71551;DHT22;59367;48.414;9.872;2022-12-11T02:55:23;0.606544495;65.65093994
71551;DHT22;59367;48.414;9.872;2022-12-11T02:56:31;0.649272919;65.56243896
71551;DHT22;59367;48.414;9.872;2022-12-11T02:57:41;0.649272919;65.62805176
71551;DHT22;59367;48.414;9.872;2022-12-11T02:58:49;0.6759758;65.51208496
71551;DHT22;59367;48.414;9.872;2022-12-11T02:59:56;0.68932724;65.34423828
71551;DHT22;59367;48.414;9.872;2022-12-11T03:01:01;0.68932724;65.35339355
71551;DHT22;59367;48.414;9.872;2022-12-11T03:02:06;0.732051849;65.45410156
71551;DHT22;59367;48.414;9.872;2022-12-11T03:03:10;0.74540329;65.45715332
71551;DHT22;59367;48.414;9.872;2022-12-11T03:04:15;0.774776459;65.44494629
71551;DHT22;59367;48.414;9.872;2022-12-11T03:05:19;0.761425018;65.48919678
71551;DHT22;59367;48.414;9.872;2022-12-11T03:06:28;0.761425018;65.48919678
71551;DHT22;59367;48.414;9.872;2022-12-11T03:07:38;0.761425018;65.41290283
71551;DHT22;59367;48.414;9.872;2022-12-11T03:08:43;0.788127899;65.43579102
71551;DHT22;59367;48.414;9.872;2022-12-11T03:09:48;0.761425018;65.56396484
71551;DHT22;59367;48.414;9.872;2022-12-11T03:10:53;0.788127899;65.54870605
71551;DHT22;59367;48.414;9.872;2022-12-11T03:11:57;0.788127899;65.67230225
71551;DHT22;59367;48.414;9.872;2022-12-11T03:13:02;0.817501068;65.68603516
71551;DHT22;59367;48.414;9.872;2022-12-11T03:14:08;0.817501068;65.64025879
71551;DHT22;59367;48.414;9.872;2022-12-11T03:15:16;0.804149628;65.63720703
71551;DHT22;59367;48.414;9.872;2022-12-11T03:16:27;0.860225677;65.56243896
71551;DHT22;59367;48.414;9.872;2022-12-11T03:17:37;0.900283813;65.36102295
71551;DHT22;59367;48.414;9.872;2022-12-11T03:18:48;0.916305542;65.04669189
71551;DHT22;59367;48.414;9.872;2022-12-11T03:20:00;0.929656982;64.60571289
71551;DHT22;59367;48.414;9.872;2022-12-11T03:21:10;0.959030151;64.52484131
71551;DHT22;59367;48.414;9.872;2022-12-11T03:22:18;0.959030151;64.49737549
71551;DHT22;59367;48.414;9.872;2022-12-11T03:23:29;0.959030151;64.46990967
71551;DHT22;59367;48.414;9.872;2022-12-11T03:24:40;0.959030151;64.30969238
71551;DHT22;59367;48.414;9.872;2022-12-11T03:25:52;0.959030151;64.18914795
71551;DHT22;59367;48.414;9.872;2022-12-11T03:27:00;0.959030151;64.14031982
71551;DHT22;59367;48.414;9.872;2022-12-11T03:28:11;0.999084473;63.95111084
71551;DHT22;59367;48.414;9.872;2022-12-11T03:29:22;0.972381592;63.8092041
71551;DHT22;59367;48.414;9.872;2022-12-11T03:30:29;0.959030151;63.98925781
71551;DHT22;59367;48.414;9.872;2022-12-11T03:31:38;0.929656982;64.00604248
71551;DHT22;59367;48.414;9.872;2022-12-11T03:32:48;0.943008423;64.2868042
71551;DHT22;59367;48.414;9.872;2022-12-11T03:33:55;0.943008423;64.36309814
71551;DHT22;59367;48.414;9.872;2022-12-11T03:35:05;0.916305542;64.41497803
71551;DHT22;59367;48.414;9.872;2022-12-11T03:36:13;0.916305542;64.51873779
71551;DHT22;59367;48.414;9.872;2022-12-11T03:37:22;0.929656982;64.52941895
71551;DHT22;59367;48.414;9.872;2022-12-11T03:38:34;0.929656982;64.52026367
71551;DHT22;59367;48.414;9.872;2022-12-11T03:39:42;0.916305542;64.30358887
71551;DHT22;59367;48.414;9.872;2022-12-11T03:40:50;0.943008423;64.36309814
71551;DHT22;59367;48.414;9.872;2022-12-11T03:41:56;0.943008423;64.4317627
71551;DHT22;59367;48.414;9.872;2022-12-11T03:43:03;0.943008423;64.47753906
71551;DHT22;59367;48.414;9.872;2022-12-11T03:44:09;0.943008423;64.5324707
71551;DHT22;59367;48.414;9.872;2022-12-11T03:45:15;0.943008423;64.51568604
71551;DHT22;59367;48.414;9.872;2022-12-11T03:46:22;0.972381592;64.62402344
71551;DHT22;59367;48.414;9.872;2022-12-11T03:47:29;0.959030151;64.51873779
71551;DHT22;59367;48.414;9.872;2022-12-11T03:48:37;0.959030151;64.61029053
71551;DHT22;59367;48.414;9.872;2022-12-11T03:49:44;0.959030151;64.53704834
71551;DHT22;59367;48.414;9.872;2022-12-11T03:50:49;0.985733032;64.57824707
71551;DHT22;59367;48.414;9.872;2022-12-11T03:51:55;0.929656982;64.49279785
71551;DHT22;59367;48.414;9.872;2022-12-11T03:53:02;0.959030151;64.46075439
71551;DHT22;59367;48.414;9.872;2022-12-11T03:54:08;0.999084473;64.54315186
71551;DHT22;59367;48.414;9.872;2022-12-11T03:55:15;0.985733032;64.58740234
71551;DHT22;59367;48.414;9.872;2022-12-11T03:56:21;0.985733032;64.52331543
71551;DHT22;59367;48.414;9.872;2022-12-11T03:57:30;0.999084473;64.69268799
71551;DHT22;59367;48.414;9.872;2022-12-11T03:58:35;0.999084473;64.88037109
71551;DHT22;59367;48.414;9.872;2022-12-11T03:59:40;1.028457642;64.89562988
71551;DHT22;59367;48.414;9.872;2022-12-11T04:00:44;1.055160522;65.02227783
71551;DHT22;59367;48.414;9.872;2022-12-11T04:01:49;1.028457642;65.0177002
71551;DHT22;59367;48.414;9.872;2022-12-11T04:02:53;1.028457642;64.95361328
71551;DHT22;59367;48.414;9.872;2022-12-11T04:03:58;1.028457642;64.94140625
71551;DHT22;59367;48.414;9.872;2022-12-11T04:05:02;1.084533691;64.86663818
71551;DHT22;59367;48.414;9.872;2022-12-11T04:06:07;1.071182251;64.894104
71551;DHT22;59367;48.414;9.872;2022-12-11T04:07:12;1.084533691;65.08331299
71551;DHT22;59367;48.414;9.872;2022-12-11T04:08:16;1.097885132;65.09552002
71551;DHT22;59367;48.414;9.872;2022-12-11T04:09:21;1.11390686;64.99481201
71551;DHT22;59367;48.414;9.872;2022-12-11T04:10:27;1.127262115;65.00549316
71551;DHT22;59367;48.414;9.872;2022-12-11T04:11:31;1.143283844;65.03753662
71551;DHT22;59367;48.414;9.872;2022-12-11T04:12:35;1.143283844;64.99938965
71551;DHT22;59367;48.414;9.872;2022-12-11T04:13:40;1.143283844;64.94140625
71551;DHT22;59367;48.414;9.872;2022-12-11T04:14:45;1.172657013;65.1550293
71551;DHT22;59367;48.414;9.872;2022-12-11T04:15:49;1.172657013;65.29388428
71551;DHT22;59367;48.414;9.872;2022-12-11T04:16:54;1.199359894;65.34729004
71551;DHT22;59367;48.414;9.872;2022-12-11T04:17:59;1.199359894;65.38391113
71551;DHT22;59367;48.414;9.872;2022-12-11T04:19:03;1.199359894;65.41290283
71551;DHT22;59367;48.414;9.872;2022-12-11T04:20:09;1.186008453;65.48461914
71551;DHT22;59367;48.414;9.872;2022-12-11T04:21:15;1.199359894;65.63110352
71551;DHT22;59367;48.414;9.872;2022-12-11T04:22:19;1.172657013;65.76538086
71551;DHT22;59367;48.414;9.872;2022-12-11T04:23:24;1.097885132;66.015625
71551;DHT22;59367;48.414;9.872;2022-12-11T04:24:28;1.097885132;65.77301025
71551;DHT22;59367;48.414;9.872;2022-12-11T04:25:32;1.055160522;65.57769775
71551;DHT22;59367;48.414;9.872;2022-12-11T04:26:36;1.084533691;65.31066895
71551;DHT22;59367;48.414;9.872;2022-12-11T04:27:41;1.11390686;65.19165039
71551;DHT22;59367;48.414;9.872;2022-12-11T04:28:46;1.143283844;65.06500244
71551;DHT22;59367;48.414;9.872;2022-12-11T04:29:51;1.143283844;64.38751221
71551;DHT22;59367;48.414;9.872;2022-12-11T04:30:55;1.186008453;63.75579834
71551;DHT22;59367;48.414;9.872;2022-12-11T04:31:59;1.143283844;63.40179443
71551;DHT22;59367;48.414;9.872;2022-12-11T04:33:04;1.172657013;63.24768066
71551;DHT22;59367;48.414;9.872;2022-12-11T04:34:09;1.143283844;63.0355835
71551;DHT22;59367;48.414;9.872;2022-12-11T04:35:14;1.156635284;62.96691895
71551;DHT22;59367;48.414;9.872;2022-12-11T04:36:18;1.156635284;62.87689209
71551;DHT22;59367;48.414;9.872;2022-12-11T04:37:23;1.127262115;62.94403076
71551;DHT22;59367;48.414;9.872;2022-12-11T04:38:27;1.097885132;63.04931641
71551;DHT22;59367;48.414;9.872;2022-12-11T04:39:32;1.071182251;63.10119629
71551;DHT22;59367;48.414;9.872;2022-12-11T04:40:36;1.041809082;62.83111572
71551;DHT22;59367;48.414;9.872;2022-12-11T04:41:41;1.015106201;62.74719238
71551;DHT22;59367;48.414;9.872;2022-12-11T04:42:45;0.972381592;62.87078857
71551;DHT22;59367;48.414;9.872;2022-12-11T04:43:49;0.943008423;62.92266846
71551;DHT22;59367;48.414;9.872;2022-12-11T04:44:54;0.916305542;62.87994385
71551;DHT22;59367;48.414;9.872;2022-12-11T04:46:05;0.844203949;62.9776001
71551;DHT22;59367;48.414;9.872;2022-12-11T04:47:10;0.804149628;63.13781738
71551;DHT22;59367;48.414;9.872;2022-12-11T04:48:14;0.788127899;62.62054443
71551;DHT22;59367;48.414;9.872;2022-12-11T04:49:19;0.774776459;62.37182617
71551;DHT22;59367;48.414;9.872;2022-12-11T04:50:23;0.761425018;62.03308105
71551;DHT22;59367;48.414;9.872;2022-12-11T04:51:27;0.74540329;61.97052002
71551;DHT22;59367;48.414;9.872;2022-12-11T04:52:32;0.718700409;61.89727783
71551;DHT22;59367;48.414;9.872;2022-12-11T04:53:36;0.6759758;62.03918457
71551;DHT22;59367;48.414;9.872;2022-12-11T04:54:41;0.662624359;61.96899414
71551;DHT22;59367;48.414;9.872;2022-12-11T04:55:45;0.649272919;61.78741455
71551;DHT22;59367;48.414;9.872;2022-12-11T04:56:49;0.606544495;61.76300049
71551;DHT22;59367;48.414;9.872;2022-12-11T04:57:54;0.577171326;61.668396
71551;DHT22;59367;48.414;9.872;2022-12-11T04:58:58;0.550468445;61.77215576
71551;DHT22;59367;48.414;9.872;2022-12-11T05:00:05;0.534446716;61.5524292
71551;DHT22;59367;48.414;9.872;2022-12-11T05:01:11;0.491722107;61.71264648
71551;DHT22;59367;48.414;9.872;2022-12-11T05:02:17;0.478370667;61.67144775
71551;DHT22;59367;48.414;9.872;2022-12-11T05:03:21;0.451667786;61.39221191
71551;DHT22;59367;48.414;9.872;2022-12-11T05:04:27;0.395591736;61.10534668
71551;DHT22;59367;48.414;9.872;2022-12-11T05:05:33;0.366214752;61.36627197
71551;DHT22;59367;48.414;9.872;2022-12-11T05:06:37;0.352863312;61.48376465
71551;DHT22;59367;48.414;9.872;2022-12-11T05:07:41;0.310138702;61.50817871
71551;DHT22;59367;48.414;9.872;2022-12-11T05:08:46;0.267414093;61.72790527
71551;DHT22;59367;48.414;9.872;2022-12-11T05:09:50;0.254062653;61.9430542
71551;DHT22;59367;48.414;9.872;2022-12-11T05:10:59;0.224689484;61.92779541
71551;DHT22;59367;48.414;9.872;2022-12-11T05:12:03;0.197986603;61.65771484
71551;DHT22;59367;48.414;9.872;2022-12-11T05:13:08;0.197986603;61.59820557
71551;DHT22;59367;48.414;9.872;2022-12-11T05:14:12;0.181964874;61.52648926
71551;DHT22;59367;48.414;9.872;2022-12-11T05:15:16;0.112533569;61.48529053
71551;DHT22;59367;48.414;9.872;2022-12-11T05:16:21;0.099182129;61.77825928
71551;DHT22;59367;48.414;9.872;2022-12-11T05:17:25;0.06980896;62.14904785
71551;DHT22;59367;48.414;9.872;2022-12-11T05:18:29;0.024414063;62.46948242
71551;DHT22;59367;48.414;9.872;2022-12-11T05:19:34;-0.015640259;62.51068115
71551;DHT22;59367;48.414;9.872;2022-12-11T05:20:38;-0.031661987;62.62817383
71551;DHT22;59367;48.414;9.872;2022-12-11T05:21:42;-0.045013428;62.16125488
71551;DHT22;59367;48.414;9.872;2022-12-11T05:22:47;-0.087738037;62.02545166
71551;DHT22;59367;48.414;9.872;2022-12-11T05:23:51;-0.101089478;62.05291748
71551;DHT22;59367;48.414;9.872;2022-12-11T05:24:55;-0.114440918;61.73553467
71551;DHT22;59367;48.414;9.872;2022-12-11T05:26:02;-0.114440918;61.43951416
71551;DHT22;59367;48.414;9.872;2022-12-11T05:27:07;-0.143817902;61.36627197
71551;DHT22;59367;48.414;9.872;2022-12-11T05:28:11;-0.186542511;61.38000488
71551;DHT22;59367;48.414;9.872;2022-12-11T05:29:16;-0.186542511;61.30065918
71551;DHT22;59367;48.414;9.872;2022-12-11T05:30:20;-0.226596832;61.22436523
71551;DHT22;59367;48.414;9.872;2022-12-11T05:31:26;-0.28534317;61.23657227
71551;DHT22;59367;48.414;9.872;2022-12-11T05:32:31;-0.312046051;61.38916016
71551;DHT22;59367;48.414;9.872;2022-12-11T05:33:35;-0.312046051;61.17248535
71551;DHT22;59367;48.414;9.872;2022-12-11T05:34:40;-0.368122101;60.77880859
71551;DHT22;59367;48.414;9.872;2022-12-11T05:35:49;-0.397499084;60.71472168
71551;DHT22;59367;48.414;9.872;2022-12-11T05:36:54;-0.440223694;60.60028076
71551;DHT22;59367;48.414;9.872;2022-12-11T05:37:58;-0.440223694;60.78796387
71551;DHT22;59367;48.414;9.872;2022-12-11T05:39:03;-0.496299744;60.93597412
71551;DHT22;59367;48.414;9.872;2022-12-11T05:40:09;-0.539024353;61.22436523
71551;DHT22;59367;48.414;9.872;2022-12-11T05:41:16;-0.595100403;61.61804199
71551;DHT22;59367;48.414;9.872;2022-12-11T05:42:20;-0.608451843;62.12005615
71551;DHT22;59367;48.414;9.872;2022-12-11T05:43:25;-0.608451843;62.26654053
71551;DHT22;59367;48.414;9.872;2022-12-11T05:44:30;-0.651180267;62.47711182
71551;DHT22;59367;48.414;9.872;2022-12-11T05:45:35;-0.635158539;62.64801025
71551;DHT22;59367;48.414;9.872;2022-12-11T05:46:40;-0.693904877;62.57019043
71551;DHT22;59367;48.414;9.872;2022-12-11T05:47:44;-0.707256317;62.16278076
71551;DHT22;59367;48.414;9.872;2022-12-11T05:48:51;-0.720607758;61.87744141
71551;DHT22;59367;48.414;9.872;2022-12-11T05:49:55;-0.720607758;61.63024902
71551;DHT22;59367;48.414;9.872;2022-12-11T05:51:01;-0.749980927;61.68518066
71551;DHT22;59367;48.414;9.872;2022-12-11T05:52:06;-0.776683807;61.63024902